Time;durP1;ratioP1;P1;durP2;ratioP2;P2;SDS_P1;SDS_P2;PMS_P1;PMS_P2;Temp;Humidity;BMP_temperature;BMP_pressure;BME280_temperature;BME280_humidity;BME280_pressure;Samples;Min_cycle;Max_cycle;Signal;HPM_P1;HPM_P2
2022/04/15 00:02:20;;;;;;;;;1.67;1.00;;;;;24.01;73.83;102096.28;5026254;28;60743;-64
2022/04/15 00:04:45;;;;;;;;;1.00;1.00;;;;;24.03;73.54;102105.25;5022837;28;53978;-63
2022/04/15 00:07:11;;;;;;;;;2.67;2.67;;;;;24.02;73.82;102098.09;5024425;28;50938;-63
2022/04/15 00:09:36;;;;;;;;;3.00;1.67;;;;;24.03;73.95;102101.69;5027366;28;57990;-63
2022/04/15 00:12:07;;;;;;;;;2.67;2.00;;;;;24.03;74.14;102098.97;5027339;28;57421;-64
2022/04/15 00:14:33;;;;;;;;;2.00;2.00;;;;;24.04;73.70;102101.63;5017032;28;45478;-63
2022/04/15 00:16:59;;;;;;;;;1.33;1.00;;;;;24.02;74.09;102098.09;5017506;28;45407;-64
2022/04/15 00:19:24;;;;;;;;;2.67;2.00;;;;;24.05;73.68;102106.09;5028743;28;62667;-62
2022/04/15 00:21:50;;;;;;;;;1.00;1.00;;;;;24.03;74.13;102097.16;5015920;28;45366;-64
2022/04/15 00:24:15;;;;;;;;;1.00;1.00;;;;;24.04;74.18;102104.31;5016594;28;45570;-63
2022/04/15 00:26:41;;;;;;;;;1.00;1.00;;;;;24.03;74.09;102096.28;5025516;28;51194;-64
2022/04/15 00:29:06;;;;;;;;;2.00;2.00;;;;;24.04;74.13;102100.75;5031844;28;45756;-64
2022/04/15 00:31:32;;;;;;;;;2.00;2.00;;;;;24.07;73.98;102106.03;5017345;28;45491;-62
2022/04/15 00:33:58;;;;;;;;;2.00;2.00;;;;;24.07;74.46;102106.03;5018870;28;45511;-65
2022/04/15 00:36:23;;;;;;;;;1.00;1.00;;;;;24.08;74.46;102102.44;5034444;28;45241;-64
2022/04/15 00:38:48;;;;;;;;;3.00;2.00;;;;;24.08;74.36;102101.56;5025851;28;47170;-64
2022/04/15 00:41:17;;;;;;;;;2.00;2.00;;;;;24.08;73.81;102097.06;5021303;28;45317;-64
2022/04/15 00:43:43;;;;;;;;;2.00;2.00;;;;;24.05;74.00;102098.00;5016468;28;45499;-63
2022/04/15 00:46:09;;;;;;;;;2.67;1.00;;;;;24.08;74.33;102101.56;5032277;28;45556;-64
2022/04/15 00:48:36;;;;;;;;;2.00;2.00;;;;;24.08;74.10;102098.88;5035302;28;46337;-65
2022/04/15 00:51:02;;;;;;;;;4.00;1.67;;;;;24.07;74.49;102103.34;5030968;28;45395;-64
2022/04/15 00:53:29;;;;;;;;;2.00;2.00;;;;;24.07;74.15;102100.66;5034775;28;45241;-64
2022/04/15 00:55:57;;;;;;;;;3.00;2.00;;;;;24.09;74.14;102106.91;5030460;28;45368;-63
2022/04/15 00:58:24;;;;;;;;;4.00;2.00;;;;;24.08;74.22;102098.88;5035533;28;45527;-64
2022/04/15 01:00:53;;;;;;;;;3.00;3.00;;;;;24.08;74.25;102097.06;5031301;28;45416;-63
2022/04/15 01:03:21;;;;;;;;;3.00;3.00;;;;;24.10;74.45;102103.28;5030345;28;45356;-64
2022/04/15 01:05:47;;;;;;;;;2.00;2.00;;;;;24.08;74.61;102097.06;5035429;28;45609;-65
2022/04/15 01:08:14;;;;;;;;;2.00;2.00;;;;;24.11;74.45;102096.06;5015435;28;47666;-64
2022/04/15 01:10:40;;;;;;;;;2.00;2.00;;;;;24.10;74.08;102102.41;5013955;28;45359;-63
2022/04/15 01:13:06;;;;;;;;;2.00;2.00;;;;;24.08;74.40;102098.88;5034623;28;45367;-64
2022/04/15 01:15:33;;;;;;;;;2.00;2.00;;;;;24.10;74.52;102105.09;5034499;28;45289;-63
2022/04/15 01:17:58;;;;;;;;;4.00;2.33;;;;;24.11;74.45;102112.25;5034978;28;45427;-64
2022/04/15 01:20:26;;;;;;;;;3.33;2.33;;;;;24.11;74.20;102106.88;5033590;28;60114;-65
2022/04/15 01:23:11;;;;;;;;;3.00;3.00;;;;;24.10;74.49;102099.69;5031642;28;55732;-64
2022/04/15 01:25:37;;;;;;;;;3.00;2.00;;;;;24.11;74.45;102105.06;5030251;28;45377;-62
2022/04/15 01:28:03;;;;;;;;;3.00;3.00;;;;;24.11;74.26;102105.06;5034361;28;46707;-63
2022/04/15 01:30:28;;;;;;;;;4.67;3.00;;;;;24.10;74.41;102097.00;5029928;28;45946;-63
2022/04/15 01:32:54;;;;;;;;;3.00;3.00;;;;;24.09;74.51;102103.34;5030279;28;45483;-63
2022/04/15 01:35:20;;;;;;;;;4.67;3.67;;;;;24.08;74.36;102105.16;5039014;28;45657;-63
2022/04/15 01:37:46;;;;;;;;;3.00;3.00;;;;;24.09;74.36;102097.94;5034307;28;45953;-63
2022/04/15 01:40:13;;;;;;;;;4.00;2.67;;;;;24.08;74.23;102096.16;5036823;28;45389;-63
2022/04/15 01:42:39;;;;;;;;;3.00;3.00;;;;;24.07;74.46;102103.34;5031519;28;45223;-64
2022/04/15 01:45:06;;;;;;;;;4.00;4.00;;;;;24.07;74.34;102105.16;5016044;28;45462;-62
2022/04/15 01:47:31;;;;;;;;;3.33;2.00;;;;;24.07;74.53;102106.03;5019102;28;45727;-64
2022/04/15 01:49:57;;;;;;;;;3.00;3.00;;;;;24.07;74.75;102105.16;5016551;28;45262;-64
2022/04/15 01:52:22;;;;;;;;;3.33;3.00;;;;;24.05;74.48;102108.78;5024025;28;45376;-64
2022/04/15 01:54:48;;;;;;;;;3.00;3.00;;;;;24.05;74.25;102102.50;5017912;28;45443;-63
2022/04/15 01:57:14;;;;;;;;;3.00;3.00;;;;;24.05;74.56;102094.41;5018425;28;54998;-63
2022/04/15 01:59:40;;;;;;;;;4.00;3.00;;;;;24.06;74.38;102101.56;5027957;28;46222;-63
2022/04/15 02:02:06;;;;;;;;;4.67;3.00;;;;;24.07;74.41;102103.34;5018846;28;45466;-63
2022/04/15 02:04:32;;;;;;;;;3.00;3.00;;;;;24.06;74.49;102104.28;5019069;28;45542;-63
2022/04/15 02:06:57;;;;;;;;;3.67;3.00;;;;;24.05;74.67;102105.22;5018193;28;46374;-63
2022/04/15 02:09:23;;;;;;;;;3.00;3.00;;;;;24.05;74.63;102103.41;5024535;28;60042;-63
2022/04/15 02:11:49;;;;;;;;;2.00;2.00;;;;;24.05;74.69;102100.69;5021561;28;45422;-62
2022/04/15 02:14:15;;;;;;;;;2.00;2.00;;;;;24.04;74.67;102109.72;5014180;28;50606;-63
2022/04/15 02:16:41;;;;;;;;;1.33;1.33;;;;;24.05;74.63;102110.59;5019134;28;45229;-62
2022/04/15 02:19:06;;;;;;;;;5.33;5.00;;;;;24.05;74.68;102107.91;5020594;28;45396;-63
2022/04/15 02:21:32;;;;;;;;;2.00;2.00;;;;;24.03;74.64;102104.38;5021826;28;56442;-62
2022/04/15 02:23:58;;;;;;;;;4.00;4.00;;;;;24.03;74.64;102105.25;5018242;28;45506;-64
2022/04/15 02:26:23;;;;;;;;;5.00;4.00;;;;;24.04;74.64;102120.50;5021931;28;45342;-62
2022/04/15 02:28:49;;;;;;;;;3.00;3.00;;;;;24.02;74.57;102103.50;5025114;28;45479;-63
2022/04/15 02:31:14;;;;;;;;;3.00;3.00;;;;;24.04;74.77;102112.41;5017819;28;54263;-63
2022/04/15 02:33:40;;;;;;;;;3.00;3.00;;;;;24.02;74.66;102105.28;5020185;28;45463;-62
2022/04/15 02:36:05;;;;;;;;;5.00;3.00;;;;;24.03;74.71;102104.38;5027014;28;45790;-63
2022/04/15 02:38:30;;;;;;;;;5.00;3.33;;;;;24.02;74.74;102108.88;5009868;28;45414;-63
2022/04/15 02:40:56;;;;;;;;;4.00;3.33;;;;;24.02;74.90;102107.97;5023490;28;54232;-63
2022/04/15 02:43:25;;;;;;;;;4.67;3.00;;;;;24.02;75.04;102103.50;5152772;22;51748;-64
2022/04/15 02:45:50;;;;;;;;;3.33;3.33;;;;;24.02;74.80;102111.59;5079942;27;46709;-63
2022/04/15 02:48:15;;;;;;;;;3.00;3.00;;;;;24.01;74.51;102107.09;5098123;27;45327;-63
2022/04/15 02:50:41;;;;;;;;;4.33;4.00;;;;;24.01;74.76;102109.78;5072616;27;53865;-63
2022/04/15 02:53:06;;;;;;;;;5.00;4.00;;;;;24.01;74.63;102106.19;5097903;27;45276;-64
2022/04/15 02:55:32;;;;;;;;;6.67;5.00;;;;;24.02;74.78;102110.66;5063033;27;47358;-63
2022/04/15 02:57:57;;;;;;;;;5.33;4.00;;;;;24.00;74.81;102110.72;5097765;27;58185;-63
2022/04/15 03:00:23;;;;;;;;;2.00;2.00;;;;;24.03;74.84;102109.78;5096052;27;45739;-62
2022/04/15 03:02:48;;;;;;;;;3.00;3.00;;;;;24.05;74.89;102118.69;5095624;27;45499;-63
2022/04/15 03:05:14;;;;;;;;;3.33;3.33;;;;;24.04;74.90;102107.03;5093454;27;46326;-62
2022/04/15 03:07:40;;;;;;;;;4.00;4.00;;;;;24.04;75.19;102112.41;5093271;27;45860;-63
2022/04/15 03:10:07;;;;;;;;;4.00;3.00;;;;;24.10;75.09;102118.59;5090708;27;45477;-63
2022/04/15 03:12:37;;;;;;;;;5.00;4.00;;;;;24.10;74.86;102111.38;5098226;27;45619;-62
2022/04/15 03:15:04;;;;;;;;;5.00;4.00;;;;;24.10;74.85;102113.19;5095554;27;46920;-63
2022/04/15 03:17:30;;;;;;;;;4.67;4.00;;;;;24.13;74.93;102113.09;5077086;27;45438;-63
2022/04/15 03:19:55;;;;;;;;;3.00;3.00;;;;;24.13;74.84;102116.72;5098131;27;45450;-62
2022/04/15 03:22:20;;;;;;;;;3.00;3.00;;;;;24.14;74.93;102114.91;5093680;27;45532;-63
2022/04/15 03:24:47;;;;;;;;;6.00;4.00;;;;;24.13;74.78;102113.09;5097036;27;55563;-63
2022/04/15 03:27:13;;;;;;;;;5.00;4.00;;;;;24.12;75.00;102123.00;5097721;27;45465;-63
2022/04/15 03:29:38;;;;;;;;;4.00;4.00;;;;;24.12;75.21;102120.31;5097307;27;45310;-63
2022/04/15 03:32:04;;;;;;;;;4.00;3.00;;;;;24.14;74.81;102123.00;5084873;27;45241;-62
2022/04/15 03:34:29;;;;;;;;;4.33;3.67;;;;;24.14;74.90;102123.00;5091298;27;47542;-63
2022/04/15 03:36:54;;;;;;;;;4.00;2.33;;;;;24.15;75.19;102119.38;5089946;27;60820;-64
2022/04/15 03:39:20;;;;;;;;;4.00;4.00;;;;;24.15;74.92;102114.84;5097228;27;52054;-62
2022/04/15 03:41:45;;;;;;;;;4.00;2.00;;;;;24.15;74.69;102116.66;5097180;27;45517;-64
2022/04/15 03:44:11;;;;;;;;;4.00;4.00;;;;;24.17;74.97;102115.69;5095889;27;62486;-63
2022/04/15 03:46:38;;;;;;;;;6.00;3.67;;;;;24.18;74.59;102116.56;5096957;27;54757;-63
2022/04/15 03:49:04;;;;;;;;;4.00;4.00;;;;;24.17;74.36;102120.19;5096905;27;45529;-63
2022/04/15 03:51:29;;;;;;;;;3.67;3.33;;;;;24.16;74.68;102118.44;5091606;27;45312;-63
2022/04/15 03:53:54;;;;;;;;;5.67;4.67;;;;;24.16;74.61;102119.31;5092501;27;62121;-63
2022/04/15 03:56:20;;;;;;;;;2.33;2.33;;;;;24.17;74.73;102126.47;5088060;27;58596;-62
2022/04/15 03:58:45;;;;;;;;;4.67;3.00;;;;;24.17;74.65;102129.19;5092693;27;53976;-63
2022/04/15 04:01:10;;;;;;;;;4.00;3.00;;;;;24.14;74.32;102129.28;5090142;27;51588;-62
2022/04/15 04:03:36;;;;;;;;;3.67;3.67;;;;;24.16;74.58;102129.22;5095366;27;63230;-62
2022/04/15 04:06:01;;;;;;;;;2.67;2.67;;;;;24.14;74.41;102126.56;5096283;27;45448;-62
2022/04/15 04:08:26;;;;;;;;;3.67;3.67;;;;;24.13;74.13;102127.50;5088665;27;53183;-63
2022/04/15 04:10:52;;;;;;;;;3.00;3.00;;;;;24.14;74.55;102129.28;5096019;27;51892;-64
2022/04/15 04:13:17;;;;;;;;;4.67;3.00;;;;;24.14;74.61;102128.41;5096289;27;46391;-62
2022/04/15 04:15:42;;;;;;;;;3.00;3.00;;;;;24.16;74.50;102129.22;5097029;27;45517;-63
2022/04/15 04:18:09;;;;;;;;;4.00;4.00;;;;;24.14;74.70;102136.50;5097109;27;48195;-62
2022/04/15 04:20:35;;;;;;;;;3.00;3.00;;;;;24.14;74.46;102129.28;5090788;27;45678;-63
2022/04/15 04:23:00;;;;;;;;;3.67;3.67;;;;;24.16;74.57;102137.31;5072535;27;61931;-64
2022/04/15 04:25:25;;;;;;;;;3.67;3.00;;;;;24.15;74.36;102144.53;5096326;27;60133;-63
2022/04/15 04:27:51;;;;;;;;;3.67;3.67;;;;;24.13;74.40;102143.69;5096626;27;50168;-63
2022/04/15 04:30:16;;;;;;;;;3.33;3.33;;;;;24.16;74.16;102148.13;5097037;27;45620;-63
2022/04/15 04:32:49;;;;;;;;;4.00;3.00;;;;;24.15;74.27;102149.06;5095570;27;46908;-63
2022/04/15 04:35:16;;;;;;;;;3.67;3.67;;;;;24.14;74.60;102150.88;5096783;27;45788;-63
2022/04/15 04:37:41;;;;;;;;;4.00;4.00;;;;;24.12;74.46;102150.00;5096898;27;45346;-63
2022/04/15 04:40:07;;;;;;;;;5.00;4.00;;;;;24.13;74.46;102145.47;5088486;27;45504;-63
2022/04/15 04:42:33;;;;;;;;;5.00;3.67;;;;;24.11;74.46;102148.22;5091424;27;46340;-62
2022/04/15 04:44:58;;;;;;;;;3.00;3.00;;;;;24.15;74.47;102157.16;5095167;27;62089;-62
2022/04/15 04:47:24;;;;;;;;;4.00;4.00;;;;;24.13;74.46;102157.19;5096871;27;45310;-65
2022/04/15 04:49:50;;;;;;;;;4.00;4.00;;;;;24.12;74.59;102157.22;5070905;27;54627;-63
2022/04/15 04:52:15;;;;;;;;;3.00;3.00;;;;;24.09;74.20;102152.78;5092768;27;47177;-64
2022/04/15 04:54:40;;;;;;;;;6.00;4.33;;;;;24.11;74.37;102163.53;5090753;27;45455;-64
2022/04/15 04:57:06;;;;;;;;;3.00;3.00;;;;;24.10;74.55;102159.97;5093844;27;45228;-65
2022/04/15 04:59:32;;;;;;;;;3.00;3.00;;;;;24.12;74.49;102159.91;5087212;27;45491;-66
2022/04/15 05:01:58;;;;;;;;;3.00;3.00;;;;;24.12;74.29;102173.41;5092842;27;46460;-64
2022/04/15 05:04:23;;;;;;;;;4.00;3.33;;;;;24.11;74.29;102177.03;5095042;27;45552;-65
2022/04/15 05:06:49;;;;;;;;;3.00;3.00;;;;;24.12;74.49;102170.72;5097575;27;45464;-63
2022/04/15 05:09:15;;;;;;;;;4.00;4.00;;;;;24.10;74.17;102177.97;5099241;27;53873;-64
2022/04/15 05:11:41;;;;;;;;;4.00;4.00;;;;;24.12;74.43;102177.00;5094553;27;45630;-65
2022/04/15 05:14:06;;;;;;;;;3.33;3.33;;;;;24.11;74.26;102182.44;5098374;27;45499;-66
2022/04/15 05:16:31;;;;;;;;;4.00;4.00;;;;;24.10;74.21;102177.97;5096759;27;53205;-66
2022/04/15 05:18:57;;;;;;;;;5.67;4.33;;;;;24.09;74.73;102179.78;5096193;27;53833;-65
2022/04/15 05:21:22;;;;;;;;;5.00;3.33;;;;;24.12;74.36;102189.59;5098083;27;63663;-65
2022/04/15 05:23:47;;;;;;;;;4.00;3.00;;;;;24.10;74.14;102191.47;5099545;27;53395;-67
2022/04/15 05:26:13;;;;;;;;;4.33;4.33;;;;;24.12;74.43;102192.28;5091683;27;46088;-65
2022/04/15 05:28:39;;;;;;;;;4.00;3.00;;;;;24.11;74.51;102193.22;5088153;27;45572;-66
2022/04/15 05:31:04;;;;;;;;;5.00;4.00;;;;;24.11;74.33;102190.53;5089186;27;47287;-66
2022/04/15 05:33:30;;;;;;;;;3.00;3.00;;;;;24.11;74.10;102190.53;5096046;27;45572;-63
2022/04/15 05:35:56;;;;;;;;;4.00;4.00;;;;;24.09;74.01;102192.38;5078503;27;45573;-63
2022/04/15 05:38:21;;;;;;;;;6.00;4.00;;;;;24.10;74.27;102197.75;5091379;27;45434;-67
2022/04/15 05:40:47;;;;;;;;;3.33;3.33;;;;;24.11;74.66;102201.31;5092994;27;63099;-63
2022/04/15 05:43:12;;;;;;;;;5.00;4.00;;;;;24.09;74.28;102195.09;5097784;27;45358;-62
2022/04/15 05:45:38;;;;;;;;;9.67;9.67;;;;;24.02;68.61;102203.31;5082816;27;45382;-68
2022/04/15 05:48:04;;;;;;;;;9.33;8.00;;;;;23.75;65.66;102201.22;5084029;27;45421;-71
2022/04/15 05:50:29;;;;;;;;;9.00;9.00;;;;;23.40;64.35;102205.53;5072955;27;45496;-70
2022/04/15 05:52:54;;;;;;;;;10.67;10.00;;;;;23.04;63.82;102206.25;5092676;27;50020;-68
2022/04/15 05:55:19;;;;;;;;;11.67;9.00;;;;;;;;5067592;27;45458;-72
2022/04/15 05:57:45;;;;;;;;;11.33;11.00;;;;;22.29;64.40;102205.72;5090276;27;45375;-67
2022/04/15 06:00:11;;;;;;;;;10.67;10.33;;;;;21.92;65.15;102211.63;5094845;27;46600;-68
2022/04/15 06:02:36;;;;;;;;;14.00;11.67;;;;;21.59;66.17;102212.97;5094047;27;45501;-70
2022/04/15 06:05:02;;;;;;;;;10.33;9.67;;;;;21.28;67.53;102219.56;5096751;27;45477;-68
2022/04/15 06:07:27;;;;;;;;;9.00;7.33;;;;;21.01;67.74;102220.75;5098146;27;45430;-68
2022/04/15 06:09:53;;;;;;;;;11.00;11.00;;;;;20.76;69.24;102221.00;5094002;27;58339;-71
2022/04/15 06:12:21;;;;;;;;;8.67;8.67;;;;;20.53;69.91;102221.19;5093902;27;54874;-70
2022/04/15 06:14:49;;;;;;;;;9.67;7.00;;;;;20.37;70.75;102228.44;5097539;27;45409;-67
2022/04/15 06:17:21;;;;;;;;;10.00;7.33;;;;;20.22;71.85;102231.22;5089470;27;46642;-68
2022/04/15 06:19:47;;;;;;;;;9.67;9.00;;;;;20.17;72.12;102240.19;5092254;27;46683;-68
2022/04/15 06:22:12;;;;;;;;;11.33;9.33;;;;;20.02;73.99;102238.50;5087028;27;45499;-67
2022/04/15 06:24:37;;;;;;;;;13.67;10.00;;;;;19.79;73.91;102247.56;5087105;27;47199;-67
2022/04/15 06:27:03;;;;;;;;;10.00;9.67;;;;;19.56;75.51;102252.97;5083667;27;45585;-68
2022/04/15 06:29:28;;;;;;;;;11.33;11.33;;;;;19.35;75.85;102261.97;5090339;27;47101;-67
2022/04/15 06:31:54;;;;;;;;;13.00;11.33;;;;;19.04;80.12;102263.81;5080336;27;45655;-67
2022/04/15 06:34:19;;;;;;;;;12.00;11.33;;;;;18.78;79.84;102255.78;5067811;28;45709;-67
2022/04/15 06:36:44;;;;;;;;;11.33;8.00;;;;;18.59;79.65;102262.91;5087819;27;51577;-67
2022/04/15 06:39:10;;;;;;;;;16.00;13.33;;;;;18.47;80.86;102261.97;5088347;27;63642;-67
2022/04/15 06:41:35;;;;;;;;;15.33;13.33;;;;;18.31;82.53;102255.72;5094949;27;59099;-67
2022/04/15 06:44:00;;;;;;;;;13.00;13.00;;;;;18.19;87.27;102261.94;5094476;27;47563;-67
2022/04/15 06:46:26;;;;;;;;;10.67;9.33;;;;;18.06;87.20;102266.38;5095536;27;52682;-67
2022/04/15 06:48:51;;;;;;;;;12.33;12.00;;;;;18.11;83.60;102263.72;5091096;27;60419;-67
2022/04/15 06:51:16;;;;;;;;;15.00;14.00;;;;;18.05;85.17;102255.66;5093563;27;58591;-67
2022/04/15 06:53:42;;;;;;;;;11.00;11.00;;;;;18.03;83.37;102260.09;5072073;27;58725;-67
2022/04/15 06:56:10;;;;;;;;;19.33;13.00;;;;;17.99;84.33;102260.97;5083990;27;54076;-67
2022/04/15 06:58:35;;;;;;;;;12.00;11.33;;;;;17.90;88.61;102255.63;5089329;27;46644;-67
2022/04/15 07:01:01;;;;;;;;;14.33;13.00;;;;;17.83;90.13;102267.16;5090767;27;45442;-67
2022/04/15 07:03:26;;;;;;;;;14.33;11.67;;;;;17.83;86.98;102272.50;5095763;27;54958;-67
2022/04/15 07:05:51;;;;;;;;;12.00;11.67;;;;;17.84;88.16;102267.16;5087619;27;47193;-67
2022/04/15 07:08:17;;;;;;;;;14.33;13.33;;;;;17.84;89.01;102267.16;5073640;27;46749;-67
2022/04/15 07:10:42;;;;;;;;;12.67;12.67;;;;;17.93;85.33;102275.22;5096959;27;45446;-67
2022/04/15 07:13:08;;;;;;;;;12.00;11.33;;;;;17.88;88.44;102271.63;5096403;27;45355;-67
2022/04/15 07:15:33;;;;;;;;;11.33;8.67;;;;;17.90;90.01;102279.69;5091044;27;45555;-67
2022/04/15 07:18:00;;;;;;;;;10.00;10.00;;;;;17.92;86.38;102276.09;5096001;27;45480;-67
2022/04/15 07:20:25;;;;;;;;;16.00;11.33;;;;;17.91;89.46;102284.13;5093587;27;45489;-67
2022/04/15 07:23:00;;;;;;;;;12.67;10.00;;;;;17.92;87.87;102277.88;5094614;27;45367;-67
2022/04/15 07:25:26;;;;;;;;;12.00;10.67;;;;;17.97;89.38;102281.47;5067601;28;45669;-67
2022/04/15 07:27:53;;;;;;;;;18.00;15.33;;;;;17.99;88.55;102275.22;5087044;27;46818;-67
2022/04/15 07:30:19;;;;;;;;;13.00;13.00;;;;;18.00;90.25;102270.78;5093030;27;45354;-67
2022/04/15 07:32:44;;;;;;;;;18.00;14.00;;;;;17.97;88.35;102277.03;5090150;27;45474;-67
2022/04/15 07:35:10;;;;;;;;;15.00;15.00;;;;;17.98;89.74;102289.50;5090507;27;45664;-67
2022/04/15 07:37:35;;;;;;;;;11.33;11.33;;;;;18.02;88.13;102279.72;5071832;27;48344;-66
2022/04/15 07:40:01;;;;;;;;;12.33;10.00;;;;;18.12;88.22;102286.00;5090545;27;45671;-68
2022/04/15 07:42:26;;;;;;;;;14.00;13.00;;;;;18.16;88.74;102277.94;5089402;27;46297;-67
2022/04/15 07:44:52;;;;;;;;;11.00;10.67;;;;;18.29;88.71;102282.47;5091770;27;45472;-67
2022/04/15 07:47:17;;;;;;;;;13.00;10.00;;;;;18.46;88.83;102278.91;5084213;27;46481;-67
2022/04/15 07:49:42;;;;;;;;;13.33;11.67;;;;;18.66;88.22;102279.84;5090350;27;46234;-67
2022/04/15 07:52:08;;;;;;;;;12.00;11.67;;;;;18.82;87.90;102281.66;5066862;27;45391;-67
2022/04/15 07:54:34;;;;;;;;;15.67;13.67;;;;;18.95;87.35;102276.28;5077274;27;45586;-68
2022/04/15 07:57:00;;;;;;;;;12.00;9.00;;;;;19.06;87.17;102283.41;5081844;27;46842;-67
2022/04/15 07:59:26;;;;;;;;;12.67;11.00;;;;;19.21;86.36;102290.56;5086967;27;45379;-67
2022/04/15 08:01:53;;;;;;;;;13.67;11.33;;;;;19.28;85.91;102292.34;5089416;27;45261;-66
2022/04/15 08:04:18;;;;;;;;;14.00;12.33;;;;;19.32;85.49;102286.06;5093437;27;45427;-65
2022/04/15 08:06:44;;;;;;;;;11.67;10.33;;;;;19.38;85.58;102280.69;5083930;27;46600;-66
2022/04/15 08:09:09;;;;;;;;;13.33;12.67;;;;;19.44;85.33;102290.53;5089307;27;45478;-65
2022/04/15 08:11:34;;;;;;;;;19.33;14.00;;;;;19.44;85.46;102286.94;5084746;27;45749;-67
2022/04/15 08:14:00;;;;;;;;;11.33;11.33;;;;;19.46;84.61;102290.53;5082130;27;49809;-66
2022/04/15 08:16:25;;;;;;;;;11.67;10.67;;;;;19.49;84.53;102283.34;5079885;27;45957;-68
2022/04/15 08:18:51;;;;;;;;;12.00;12.00;;;;;19.52;84.33;102291.38;5087442;27;48044;-66
2022/04/15 08:21:17;;;;;;;;;12.33;11.33;;;;;19.51;84.90;102278.91;5089077;27;45533;-66
2022/04/15 08:23:43;;;;;;;;;14.33;12.00;;;;;19.54;84.73;102281.53;5086160;27;45857;-67
2022/04/15 08:26:10;;;;;;;;;10.67;10.67;;;;;19.57;84.32;102286.03;5074995;27;47016;-69
2022/04/15 08:28:35;;;;;;;;;10.00;10.00;;;;;19.59;84.17;102286.94;5068961;27;47139;-68
2022/04/15 08:31:01;;;;;;;;;13.00;10.67;;;;;19.59;84.00;102287.81;5084950;27;45596;-66
2022/04/15 08:33:26;;;;;;;;;12.00;9.33;;;;;19.62;83.57;102290.50;5070045;27;45616;-72
2022/04/15 08:35:52;;;;;;;;;15.00;11.00;;;;;19.63;84.32;102288.72;5073180;27;45822;-69
2022/04/15 08:38:18;;;;;;;;;12.00;11.00;;;;;19.65;83.87;102291.38;5091877;27;45403;-67
2022/04/15 08:40:47;;;;;;;;;12.00;11.00;;;;;19.67;83.41;102294.97;5090257;27;45360;-68
2022/04/15 08:43:13;;;;;;;;;14.67;13.00;;;;;19.66;83.22;102291.38;5090823;27;45430;-67
2022/04/15 08:45:41;;;;;;;;;13.00;11.33;;;;;19.69;83.07;102295.84;5097500;27;46578;-70
2022/04/15 08:48:07;;;;;;;;;17.67;11.67;;;;;19.70;83.61;102294.94;5088552;27;45640;-67
2022/04/15 08:50:32;;;;;;;;;14.00;11.33;;;;;19.70;84.36;102290.47;5094497;27;46404;-66
2022/04/15 08:52:59;;;;;;;;;16.00;13.67;;;;;19.72;83.94;102291.38;5070560;27;45541;-67
2022/04/15 08:55:27;;;;;;;;;18.67;14.33;;;;;19.76;84.12;102295.81;5092845;27;46612;-67
2022/04/15 08:57:56;;;;;;;;;10.67;10.67;;;;;19.78;84.58;102296.69;5078134;27;45553;-67
2022/04/15 09:00:23;;;;;;;;;14.00;12.67;;;;;19.81;84.70;102287.75;5082200;27;45479;-67
2022/04/15 09:02:50;;;;;;;;;13.67;12.00;;;;;19.79;84.09;102284.19;5084282;27;45507;-70
2022/04/15 09:05:24;;;;;;;;;14.33;12.33;;;;;19.86;83.78;102294.88;5078652;27;45936;-67
2022/04/15 09:08:04;;;;;;;;;16.00;12.00;;;;;19.88;83.89;102306.50;5089608;27;45576;-68
2022/04/15 09:10:30;;;;;;;;;11.00;10.00;;;;;19.88;83.33;102293.09;5068934;27;45553;-68
2022/04/15 09:12:56;;;;;;;;;10.67;8.67;;;;;19.91;83.24;102294.84;5074295;27;45762;-67
2022/04/15 09:15:21;;;;;;;;;12.00;10.00;;;;;19.93;83.29;102294.88;5091616;27;45745;-69
2022/04/15 09:17:49;;;;;;;;;16.67;7.33;;;;;19.94;83.00;102286.81;5089727;27;60614;-66
2022/04/15 09:20:15;;;;;;;;;6.33;5.33;;;;;20.00;83.34;102293.94;5092877;27;45552;-68
2022/04/15 09:22:40;;;;;;;;;9.33;6.33;;;;;20.02;85.53;102287.66;5085433;27;45581;-69
2022/04/15 09:25:06;;;;;;;;;29.33;19.33;;;;;20.10;83.98;102290.31;5088791;27;47744;-67
2022/04/15 09:27:34;;;;;;;;;7.67;6.00;;;;;20.13;84.51;102282.22;5086148;27;45481;-67
2022/04/15 09:30:00;;;;;;;;;7.00;5.00;;;;;20.23;84.61;102297.38;5098167;27;45516;-67
2022/04/15 09:32:27;;;;;;;;;12.00;6.00;;;;;20.29;86.10;102289.28;5070010;27;45539;-67
2022/04/15 09:34:55;;;;;;;;;5.33;4.00;;;;;20.38;86.76;102296.41;5079686;27;45938;-69
2022/04/15 09:37:22;;;;;;;;;7.00;5.00;;;;;20.49;86.88;102289.19;5097743;27;45383;-67
2022/04/15 09:40:19;;;;;;;;;5.33;4.00;;;;;20.60;86.24;102281.06;5098978;27;45343;-67
2022/04/15 09:42:49;;;;;;;;;4.67;3.00;;;;;20.71;84.80;102281.00;5096217;27;45622;-68
2022/04/15 09:45:18;;;;;;;;;5.00;2.00;;;;;20.76;83.36;102281.84;5096953;27;47003;-67
2022/04/15 09:47:53;;;;;;;;;2.33;2.33;;;;;20.78;81.84;102280.94;5098564;27;45157;-70
2022/04/15 09:50:22;;;;;;;;;5.33;3.00;;;;;20.78;80.87;102285.44;5094611;27;45323;-67
2022/04/15 09:52:50;;;;;;;;;1.67;1.00;;;;;20.78;80.32;102278.25;5093947;27;45501;-67
2022/04/15 09:55:17;;;;;;;;;1.00;1.00;;;;;20.79;79.21;102280.03;5068734;27;46469;-67
2022/04/15 09:57:42;;;;;;;;;1.00;1.00;;;;;20.83;78.90;102286.28;5096894;27;45467;-67
2022/04/15 10:00:11;;;;;;;;;1.00;1.00;;;;;20.84;78.36;102283.56;5071275;27;47092;-67
2022/04/15 10:02:38;;;;;;;;;2.00;1.00;;;;;20.84;77.89;102286.25;5061318;27;45621;-66
2022/04/15 10:05:04;;;;;;;;;1.67;1.00;;;;;20.84;78.24;102280.88;5096087;27;46578;-69
2022/04/15 10:07:30;;;;;;;;;2.67;1.00;;;;;20.88;76.64;102282.66;5065774;27;45260;-67
2022/04/15 10:09:56;;;;;;;;;0.67;0.67;;;;;20.86;76.14;102278.19;5094195;27;45341;-67
2022/04/15 10:12:22;;;;;;;;;0.33;0.33;;;;;20.87;75.97;102275.47;5072722;27;54083;-67
2022/04/15 10:14:48;;;;;;;;;1.00;1.00;;;;;20.90;76.74;102272.78;5073310;28;62836;-67
2022/04/15 10:17:17;;;;;;;;;1.00;1.00;;;;;20.95;75.76;102271.84;5094848;27;60814;-65
2022/04/15 10:19:43;;;;;;;;;0.00;0.00;;;;;20.97;74.36;102272.72;5080629;27;45428;-68
2022/04/15 10:22:09;;;;;;;;;1.00;1.00;;;;;20.95;73.36;102270.06;5067386;27;52404;-67
2022/04/15 10:24:35;;;;;;;;;1.00;1.00;;;;;20.95;73.41;102277.22;5096850;27;46392;-66
2022/04/15 10:27:00;;;;;;;;;2.00;1.00;;;;;20.93;74.16;102275.44;5092352;27;60897;-67
2022/04/15 10:29:26;;;;;;;;;1.00;1.00;;;;;20.96;73.51;102273.63;5094895;27;45366;-67
2022/04/15 10:31:54;;;;;;;;;0.00;0.00;;;;;20.96;72.39;102271.81;5095164;27;45651;-69
2022/04/15 10:34:21;;;;;;;;;0.67;0.67;;;;;20.95;73.37;102267.38;5075189;27;45932;-68
2022/04/15 10:36:52;;;;;;;;;0.00;0.00;;;;;21.02;73.56;102266.41;5093124;27;45491;-69
2022/04/15 10:39:18;;;;;;;;;1.00;1.00;;;;;21.09;72.82;102272.59;5080253;27;45517;-66
2022/04/15 10:41:48;;;;;;;;;1.00;1.00;;;;;21.11;72.42;102268.13;5077998;27;45244;-67
2022/04/15 10:44:37;;;;;;;;;0.00;0.00;;;;;21.15;72.71;102267.19;5097676;27;47320;-66
2022/04/15 10:47:11;;;;;;;;;2.00;2.00;;;;;21.20;73.27;102259.97;5097261;27;45421;-67
2022/04/15 10:49:39;;;;;;;;;1.67;1.00;;;;;21.21;71.86;102261.75;5093976;27;45285;-66
2022/04/15 10:52:21;;;;;;;;;1.00;1.00;;;;;21.23;71.24;102270.66;5072884;27;45401;-67
2022/04/15 10:54:50;;;;;;;;;1.00;0.00;;;;;21.24;71.04;102260.81;5093424;27;45846;-66
2022/04/15 10:57:17;;;;;;;;;0.00;0.00;;;;;21.24;69.74;102266.19;5092822;27;45454;-67
2022/04/15 11:02:49;;;;;;;;;1.00;1.00;;;;;21.21;69.34;102256.38;5086068;27;45537;-67
2022/04/15 11:05:32;;;;;;;;;1.00;1.00;;;;;21.19;68.44;102253.69;5084551;27;46190;-65
2022/04/15 11:07:59;;;;;;;;;5.00;2.00;;;;;21.17;69.75;102250.13;5093444;27;45473;-68
2022/04/15 11:10:42;;;;;;;;;1.00;1.00;;;;;21.19;69.67;102251.00;5060096;27;47308;-69
2022/04/15 11:13:28;;;;;;;;;1.00;1.00;;;;;21.22;68.77;102255.47;5078421;27;45641;-67
2022/04/15 11:16:19;;;;;;;;;3.33;1.33;;;;;21.24;69.11;102263.50;5050554;27;46396;-69
2022/04/15 11:19:00;;;;;;;;;3.00;2.00;;;;;21.24;69.67;102248.25;5083530;27;45657;-66
2022/04/15 11:21:35;;;;;;;;;1.00;1.00;;;;;21.27;68.82;102250.94;5074464;27;45496;-66
2022/04/15 11:24:04;;;;;;;;;4.00;2.67;;;;;21.28;68.48;102249.13;5091259;27;45654;-70